sensor_id;sensor_type;location;lat;lon;timestamp;pressure;altitude;pressure_sealevel;temperature;humidity
19150;BME280;9707;49.158;8.632;2023-07-30T00:01:38;99868.59;;;27.76;45.36
19150;BME280;9707;49.158;8.632;2023-07-30T00:04:03;99869.47;;;27.77;45.20
19150;BME280;9707;49.158;8.632;2023-07-30T00:06:29;99867.75;;;27.76;45.00
19150;BME280;9707;49.158;8.632;2023-07-30T00:08:54;99879.72;;;27.75;45.07
19150;BME280;9707;49.158;8.632;2023-07-30T00:11:19;99883.31;;;27.75;44.85
19150;BME280;9707;49.158;8.632;2023-07-30T00:13:44;99896.13;;;27.75;44.69
19150;BME280;9707;49.158;8.632;2023-07-30T00:16:10;99892.56;;;27.74;44.99
19150;BME280;9707;49.158;8.632;2023-07-30T00:18:35;99898.22;;;27.73;44.75
19150;BME280;9707;49.158;8.632;2023-07-30T00:21:01;99897.19;;;27.74;44.82
19150;BME280;9707;49.158;8.632;2023-07-30T00:23:26;99899.25;;;27.72;44.80
19150;BME280;9707;49.158;8.632;2023-07-30T00:25:51;99914.63;;;27.73;44.70
19150;BME280;9707;49.158;8.632;2023-07-30T00:28:16;99905.75;;;27.71;44.82
19150;BME280;9707;49.158;8.632;2023-07-30T00:30:42;99916.72;;;27.71;44.81
19150;BME280;9707;49.158;8.632;2023-07-30T00:33:07;99924.06;;;27.70;45.17
19150;BME280;9707;49.158;8.632;2023-07-30T00:35:32;99914.97;;;27.70;44.96
19150;BME280;9707;49.158;8.632;2023-07-30T00:37:57;99924.22;;;27.69;44.78
19150;BME280;9707;49.158;8.632;2023-07-30T00:40:23;99919.78;;;27.68;44.65
19150;BME280;9707;49.158;8.632;2023-07-30T00:42:48;99928.00;;;27.68;44.51
19150;BME280;9707;49.158;8.632;2023-07-30T00:45:13;99915.38;;;27.67;44.62
19150;BME280;9707;49.158;8.632;2023-07-30T00:47:38;99916.41;;;27.66;44.76
19150;BME280;9707;49.158;8.632;2023-07-30T00:50:05;99918.28;;;27.65;44.78
19150;BME280;9707;49.158;8.632;2023-07-30T00:52:32;99922.88;;;27.65;44.95
19150;BME280;9707;49.158;8.632;2023-07-30T00:54:58;99926.66;;;27.64;44.91
19150;BME280;9707;49.158;8.632;2023-07-30T00:57:24;99931.28;;;27.63;44.67
19150;BME280;9707;49.158;8.632;2023-07-30T00:59:51;99926.66;;;27.64;44.82
19150;BME280;9707;49.158;8.632;2023-07-30T01:02:17;99930.44;;;27.63;44.74
19150;BME280;9707;49.158;8.632;2023-07-30T01:04:43;99932.28;;;27.62;44.76
19150;BME280;9707;49.158;8.632;2023-07-30T01:07:09;99931.47;;;27.62;44.84
19150;BME280;9707;49.158;8.632;2023-07-30T01:09:35;99935.25;;;27.61;44.84
19150;BME280;9707;49.158;8.632;2023-07-30T01:12:01;99936.94;;;27.62;44.82
19150;BME280;9707;49.158;8.632;2023-07-30T01:14:27;99936.25;;;27.60;44.98
19150;BME280;9707;49.158;8.632;2023-07-30T01:16:53;99938.31;;;27.58;45.05
19150;BME280;9707;49.158;8.632;2023-07-30T01:19:18;99931.97;;;27.57;45.08
19150;BME280;9707;49.158;8.632;2023-07-30T01:21:44;99938.31;;;27.58;45.15
19150;BME280;9707;49.158;8.632;2023-07-30T01:24:09;99942.09;;;27.57;45.07
19150;BME280;9707;49.158;8.632;2023-07-30T01:26:40;99943.78;;;27.58;45.20
19150;BME280;9707;49.158;8.632;2023-07-30T01:29:12;99937.66;;;27.56;45.39
19150;BME280;9707;49.158;8.632;2023-07-30T01:31:40;99944.81;;;27.57;45.34
19150;BME280;9707;49.158;8.632;2023-07-30T01:34:07;99938.66;;;27.55;45.46
19150;BME280;9707;49.158;8.632;2023-07-30T01:36:35;99937.81;;;27.54;45.54
19150;BME280;9707;49.158;8.632;2023-07-30T01:39:01;99949.81;;;27.53;45.74
19150;BME280;9707;49.158;8.632;2023-07-30T01:41:26;99957.16;;;27.53;45.59
19150;BME280;9707;49.158;8.632;2023-07-30T01:43:52;99957.16;;;27.53;45.72
19150;BME280;9707;49.158;8.632;2023-07-30T01:46:17;99959.22;;;27.51;45.59
19150;BME280;9707;49.158;8.632;2023-07-30T01:48:42;99962.97;;;27.50;45.79
19150;BME280;9707;49.158;8.632;2023-07-30T01:51:07;99968.44;;;27.50;45.76
19150;BME280;9707;49.158;8.632;2023-07-30T01:53:33;99961.25;;;27.49;45.79
19150;BME280;9707;49.158;8.632;2023-07-30T01:55:58;99954.75;;;27.50;45.98
19150;BME280;9707;49.158;8.632;2023-07-30T01:58:23;99942.97;;;27.49;46.00
19150;BME280;9707;49.158;8.632;2023-07-30T02:00:48;99945.00;;;27.47;46.10
19150;BME280;9707;49.158;8.632;2023-07-30T02:03:14;99946.91;;;27.47;46.13
19150;BME280;9707;49.158;8.632;2023-07-30T02:05:39;99950.69;;;27.46;46.13
19150;BME280;9707;49.158;8.632;2023-07-30T02:08:04;99950.69;;;27.46;46.09
19150;BME280;9707;49.158;8.632;2023-07-30T02:10:29;99948.97;;;27.45;46.19
19150;BME280;9707;49.158;8.632;2023-07-30T02:12:55;99948.97;;;27.45;46.17
19150;BME280;9707;49.158;8.632;2023-07-30T02:15:20;99951.69;;;27.45;46.27
19150;BME280;9707;49.158;8.632;2023-07-30T02:17:45;99948.13;;;27.44;46.23
19150;BME280;9707;49.158;8.632;2023-07-30T02:20:10;99939.91;;;27.44;46.29
19150;BME280;9707;49.158;8.632;2023-07-30T02:22:36;99936.31;;;27.44;46.19
19150;BME280;9707;49.158;8.632;2023-07-30T02:25:01;99942.81;;;27.43;46.15
19150;BME280;9707;49.158;8.632;2023-07-30T02:27:26;99942.81;;;27.43;46.40
19150;BME280;9707;49.158;8.632;2023-07-30T02:29:52;99949.34;;;27.42;46.26
19150;BME280;9707;49.158;8.632;2023-07-30T02:32:17;99935.66;;;27.42;46.57
19150;BME280;9707;49.158;8.632;2023-07-30T02:34:42;99941.31;;;27.40;46.59
19150;BME280;9707;49.158;8.632;2023-07-30T02:37:07;99949.66;;;27.39;46.33
19150;BME280;9707;49.158;8.632;2023-07-30T02:39:33;99949.66;;;27.39;46.27
19150;BME280;9707;49.158;8.632;2023-07-30T02:41:58;99951.38;;;27.40;46.34
19150;BME280;9707;49.158;8.632;2023-07-30T02:44:23;99954.09;;;27.40;46.18
19150;BME280;9707;49.158;8.632;2023-07-30T02:46:49;99958.75;;;27.39;46.52
19150;BME280;9707;49.158;8.632;2023-07-30T02:49:14;99958.06;;;27.37;46.29
19150;BME280;9707;49.158;8.632;2023-07-30T02:51:39;99953.44;;;27.38;46.37
19150;BME280;9707;49.158;8.632;2023-07-30T02:54:05;99942.50;;;27.38;46.49
19150;BME280;9707;49.158;8.632;2023-07-30T02:56:30;99947.97;;;27.38;46.65
19150;BME280;9707;49.158;8.632;2023-07-30T02:58:58;99958.91;;;27.38;46.37
19150;BME280;9707;49.158;8.632;2023-07-30T03:01:23;99951.75;;;27.37;46.43
19150;BME280;9707;49.158;8.632;2023-07-30T03:03:48;99949.00;;;27.37;46.37
19150;BME280;9707;49.158;8.632;2023-07-30T03:06:14;99940.81;;;27.37;46.38
19150;BME280;9707;49.158;8.632;2023-07-30T03:08:41;99954.47;;;27.37;46.19
19150;BME280;9707;49.158;8.632;2023-07-30T03:11:07;99968.16;;;27.37;46.45
19150;BME280;9707;49.158;8.632;2023-07-30T03:13:32;99963.72;;;27.36;46.52
19150;BME280;9707;49.158;8.632;2023-07-30T03:15:57;99964.72;;;27.35;46.53
19150;BME280;9707;49.158;8.632;2023-07-30T03:18:23;99955.69;;;27.34;46.42
19150;BME280;9707;49.158;8.632;2023-07-30T03:20:48;99953.78;;;27.35;46.42
19150;BME280;9707;49.158;8.632;2023-07-30T03:23:13;99959.25;;;27.35;46.31
19150;BME280;9707;49.158;8.632;2023-07-30T03:25:38;99962.84;;;27.35;46.46
19150;BME280;9707;49.158;8.632;2023-07-30T03:28:04;99965.75;;;27.34;46.44
19150;BME280;9707;49.158;8.632;2023-07-30T03:30:29;99957.56;;;27.34;46.76
19150;BME280;9707;49.158;8.632;2023-07-30T03:32:55;99955.84;;;27.33;46.60
19150;BME280;9707;49.158;8.632;2023-07-30T03:35:20;99963.03;;;27.34;46.48
19150;BME280;9707;49.158;8.632;2023-07-30T03:37:45;99964.94;;;27.33;46.55
19150;BME280;9707;49.158;8.632;2023-07-30T03:40:11;99967.66;;;27.33;46.27
19150;BME280;9707;49.158;8.632;2023-07-30T03:42:36;99967.66;;;27.33;46.41
19150;BME280;9707;49.158;8.632;2023-07-30T03:45:01;99955.84;;;27.33;46.27
19150;BME280;9707;49.158;8.632;2023-07-30T03:47:27;99969.53;;;27.33;46.37
19150;BME280;9707;49.158;8.632;2023-07-30T03:49:52;99965.94;;;27.32;46.51
19150;BME280;9707;49.158;8.632;2023-07-30T03:52:17;99973.13;;;27.33;46.12
19150;BME280;9707;49.158;8.632;2023-07-30T03:54:42;99972.25;;;27.33;46.46
19150;BME280;9707;49.158;8.632;2023-07-30T03:57:08;99986.81;;;27.33;46.48
19150;BME280;9707;49.158;8.632;2023-07-30T03:59:33;99985.06;;;27.32;46.42
19150;BME280;9707;49.158;8.632;2023-07-30T04:01:58;99995.84;;;27.34;46.43
19150;BME280;9707;49.158;8.632;2023-07-30T04:04:24;99987.81;;;27.32;46.41
19150;BME280;9707;49.158;8.632;2023-07-30T04:06:49;99988.69;;;27.33;46.35
19150;BME280;9707;49.158;8.632;2023-07-30T04:09:14;99999.63;;;27.33;46.21
19150;BME280;9707;49.158;8.632;2023-07-30T04:11:40;99994.16;;;27.33;46.57
19150;BME280;9707;49.158;8.632;2023-07-30T04:14:05;99996.88;;;27.33;46.56
19150;BME280;9707;49.158;8.632;2023-07-30T04:16:33;100005.09;;;27.33;46.74
19150;BME280;9707;49.158;8.632;2023-07-30T04:18:58;99994.16;;;27.33;46.79
19150;BME280;9707;49.158;8.632;2023-07-30T04:21:24;99999.63;;;27.33;46.75
19150;BME280;9707;49.158;8.632;2023-07-30T04:23:49;100005.09;;;27.33;47.26
19150;BME280;9707;49.158;8.632;2023-07-30T04:26:14;100004.22;;;27.32;46.89
19150;BME280;9707;49.158;8.632;2023-07-30T04:28:39;100008.84;;;27.32;46.96
19150;BME280;9707;49.158;8.632;2023-07-30T04:31:05;100014.31;;;27.32;47.02
19150;BME280;9707;49.158;8.632;2023-07-30T04:33:30;100022.53;;;27.32;47.01
19150;BME280;9707;49.158;8.632;2023-07-30T04:35:55;100018.94;;;27.31;47.02
19150;BME280;9707;49.158;8.632;2023-07-30T04:38:20;100020.63;;;27.32;47.09
19150;BME280;9707;49.158;8.632;2023-07-30T04:40:46;100012.63;;;27.31;46.97
19150;BME280;9707;49.158;8.632;2023-07-30T04:43:11;100007.16;;;27.31;46.84
19150;BME280;9707;49.158;8.632;2023-07-30T04:45:36;100013.47;;;27.31;47.08
19150;BME280;9707;49.158;8.632;2023-07-30T04:48:02;100014.31;;;27.32;46.91
19150;BME280;9707;49.158;8.632;2023-07-30T04:50:27;100012.63;;;27.31;47.14
19150;BME280;9707;49.158;8.632;2023-07-30T04:52:52;100026.31;;;27.31;47.07
19150;BME280;9707;49.158;8.632;2023-07-30T04:55:17;100031.78;;;27.31;47.06
19150;BME280;9707;49.158;8.632;2023-07-30T04:57:43;100025.44;;;27.30;47.07
19150;BME280;9707;49.158;8.632;2023-07-30T05:00:08;100027.31;;;27.30;46.87
19150;BME280;9707;49.158;8.632;2023-07-30T05:02:34;100013.63;;;27.30;46.91
19150;BME280;9707;49.158;8.632;2023-07-30T05:04:59;100018.28;;;27.29;46.89
19150;BME280;9707;49.158;8.632;2023-07-30T05:07:24;100024.56;;;27.30;46.89
19150;BME280;9707;49.158;8.632;2023-07-30T05:09:49;100037.25;;;27.31;47.12
19150;BME280;9707;49.158;8.632;2023-07-30T05:12:15;100042.72;;;27.31;47.28
19150;BME280;9707;49.158;8.632;2023-07-30T05:14:40;100050.06;;;27.30;47.17
19150;BME280;9707;49.158;8.632;2023-07-30T05:17:05;100045.44;;;27.31;47.17
19150;BME280;9707;49.158;8.632;2023-07-30T05:19:30;100051.91;;;27.30;47.25
19150;BME280;9707;49.158;8.632;2023-07-30T05:21:57;100043.72;;;27.30;47.38
19150;BME280;9707;49.158;8.632;2023-07-30T05:24:24;100053.66;;;27.31;47.22
19150;BME280;9707;49.158;8.632;2023-07-30T05:26:49;100047.16;;;27.32;47.20
19150;BME280;9707;49.158;8.632;2023-07-30T05:29:14;100045.44;;;27.31;46.99
19150;BME280;9707;49.158;8.632;2023-07-30T05:31:40;100043.72;;;27.30;46.97
19150;BME280;9707;49.158;8.632;2023-07-30T05:34:05;100039.97;;;27.31;46.93
19150;BME280;9707;49.158;8.632;2023-07-30T05:36:30;100034.50;;;27.31;46.74
19150;BME280;9707;49.158;8.632;2023-07-30T05:38:55;100026.47;;;27.29;46.74
19150;BME280;9707;49.158;8.632;2023-07-30T05:41:21;100031.06;;;27.29;46.68
19150;BME280;9707;49.158;8.632;2023-07-30T05:43:46;100025.59;;;27.29;46.77
19150;BME280;9707;49.158;8.632;2023-07-30T05:46:12;100018.09;;;27.31;46.82
19150;BME280;9707;49.158;8.632;2023-07-30T05:48:37;100004.44;;;27.31;46.77
19150;BME280;9707;49.158;8.632;2023-07-30T05:51:03;100001.69;;;27.31;46.50
19150;BME280;9707;49.158;8.632;2023-07-30T05:53:29;100008.00;;;27.31;46.83
19150;BME280;9707;49.158;8.632;2023-07-30T05:55:54;100028.84;;;27.32;46.52
19150;BME280;9707;49.158;8.632;2023-07-30T05:58:19;100036.22;;;27.32;46.73
19150;BME280;9707;49.158;8.632;2023-07-30T06:00:44;100033.31;;;27.33;46.83
19150;BME280;9707;49.158;8.632;2023-07-30T06:03:10;100037.91;;;27.33;46.80
19150;BME280;9707;49.158;8.632;2023-07-30T06:05:40;100036.88;;;27.34;46.89
19150;BME280;9707;49.158;8.632;2023-07-30T06:08:05;100040.47;;;27.34;46.92
19150;BME280;9707;49.158;8.632;2023-07-30T06:10:30;100037.91;;;27.33;46.81
19150;BME280;9707;49.158;8.632;2023-07-30T06:12:56;100037.75;;;27.34;46.82
19150;BME280;9707;49.158;8.632;2023-07-30T06:15:21;100046.78;;;27.35;46.82
19150;BME280;9707;49.158;8.632;2023-07-30T06:17:46;100040.31;;;27.36;47.04
19150;BME280;9707;49.158;8.632;2023-07-30T06:20:11;100032.09;;;27.36;47.03
19150;BME280;9707;49.158;8.632;2023-07-30T06:22:37;100028.34;;;27.37;47.10
19150;BME280;9707;49.158;8.632;2023-07-30T06:25:02;100031.06;;;27.37;47.08
19150;BME280;9707;49.158;8.632;2023-07-30T06:27:27;100040.97;;;27.38;47.30
19150;BME280;9707;49.158;8.632;2023-07-30T06:29:53;100051.91;;;27.38;47.30
19150;BME280;9707;49.158;8.632;2023-07-30T06:32:18;100054.50;;;27.39;47.51
19150;BME280;9707;49.158;8.632;2023-07-30T06:34:43;100049.84;;;27.40;47.57
19150;BME280;9707;49.158;8.632;2023-07-30T06:37:09;100054.31;;;27.41;47.71
19150;BME280;9707;49.158;8.632;2023-07-30T06:39:34;100046.13;;;27.41;47.66
19150;BME280;9707;49.158;8.632;2023-07-30T06:41:59;100051.59;;;27.41;47.81
19150;BME280;9707;49.158;8.632;2023-07-30T06:44:24;100052.41;;;27.41;47.87
19150;BME280;9707;49.158;8.632;2023-07-30T06:46:50;100060.28;;;27.44;48.00
19150;BME280;9707;49.158;8.632;2023-07-30T06:49:16;100067.63;;;27.44;47.72
19150;BME280;9707;49.158;8.632;2023-07-30T06:51:41;100080.28;;;27.45;47.56
19150;BME280;9707;49.158;8.632;2023-07-30T06:54:07;100076.72;;;27.44;47.70
19150;BME280;9707;49.158;8.632;2023-07-30T06:56:32;100076.53;;;27.46;47.82
19150;BME280;9707;49.158;8.632;2023-07-30T06:58:57;100083.00;;;27.45;47.69
19150;BME280;9707;49.158;8.632;2023-07-30T07:01:25;100087.47;;;27.46;47.94
19150;BME280;9707;49.158;8.632;2023-07-30T07:03:50;100095.69;;;27.46;47.88
19150;BME280;9707;49.158;8.632;2023-07-30T07:06:15;100101.16;;;27.46;47.85
19150;BME280;9707;49.158;8.632;2023-07-30T07:08:41;100098.44;;;27.46;47.77
19150;BME280;9707;49.158;8.632;2023-07-30T07:11:06;100093.94;;;27.45;47.45
19150;BME280;9707;49.158;8.632;2023-07-30T07:13:34;100105.75;;;27.45;47.62
19150;BME280;9707;49.158;8.632;2023-07-30T07:15:59;100091.22;;;27.45;47.15
19150;BME280;9707;49.158;8.632;2023-07-30T07:18:24;100109.38;;;27.46;47.21
19150;BME280;9707;49.158;8.632;2023-07-30T07:20:50;100111.06;;;27.47;47.24
19150;BME280;9707;49.158;8.632;2023-07-30T07:23:15;100100.13;;;27.47;47.30
19150;BME280;9707;49.158;8.632;2023-07-30T07:25:40;100105.59;;;27.47;47.54
19150;BME280;9707;49.158;8.632;2023-07-30T07:28:05;100115.50;;;27.48;47.23
19150;BME280;9707;49.158;8.632;2023-07-30T07:30:34;100116.38;;;27.48;47.24
19150;BME280;9707;49.158;8.632;2023-07-30T07:33:00;100123.56;;;27.49;47.34
19150;BME280;9707;49.158;8.632;2023-07-30T07:35:25;100130.88;;;27.49;47.33
19150;BME280;9707;49.158;8.632;2023-07-30T07:37:50;100119.94;;;27.49;47.36
19150;BME280;9707;49.158;8.632;2023-07-30T07:40:16;100118.25;;;27.48;47.37
19150;BME280;9707;49.158;8.632;2023-07-30T07:42:41;100120.97;;;27.48;47.53
19150;BME280;9707;49.158;8.632;2023-07-30T07:45:07;100114.47;;;27.49;47.57
19150;BME280;9707;49.158;8.632;2023-07-30T07:47:32;100104.56;;;27.48;47.67
19150;BME280;9707;49.158;8.632;2023-07-30T07:49:57;100110.03;;;27.48;47.82
19150;BME280;9707;49.158;8.632;2023-07-30T07:52:23;100114.47;;;27.49;47.96
19150;BME280;9707;49.158;8.632;2023-07-30T07:54:48;100110.72;;;27.50;47.83
19150;BME280;9707;49.158;8.632;2023-07-30T07:57:13;100109.00;;;27.49;48.04
19150;BME280;9707;49.158;8.632;2023-07-30T07:59:38;100118.75;;;27.51;48.15
19150;BME280;9707;49.158;8.632;2023-07-30T08:02:04;100108.66;;;27.52;48.04
19150;BME280;9707;49.158;8.632;2023-07-30T08:04:30;100130.38;;;27.53;48.31
19150;BME280;9707;49.158;8.632;2023-07-30T08:06:55;100118.56;;;27.53;48.69
19150;BME280;9707;49.158;8.632;2023-07-30T08:09:25;100112.06;;;27.54;48.83
19150;BME280;9707;49.158;8.632;2023-07-30T08:11:50;100113.78;;;27.55;48.46
19150;BME280;9707;49.158;8.632;2023-07-30T08:14:15;100112.78;;;27.56;48.73
19150;BME280;9707;49.158;8.632;2023-07-30T08:16:40;100124.38;;;27.58;48.79
19150;BME280;9707;49.158;8.632;2023-07-30T08:19:06;100129.84;;;27.58;49.14
19150;BME280;9707;49.158;8.632;2023-07-30T08:21:31;100124.22;;;27.59;48.74
19150;BME280;9707;49.158;8.632;2023-07-30T08:23:56;100123.19;;;27.60;48.88
19150;BME280;9707;49.158;8.632;2023-07-30T08:26:21;100124.88;;;27.61;48.78
19150;BME280;9707;49.158;8.632;2023-07-30T08:28:47;100120.13;;;27.63;48.07
19150;BME280;9707;49.158;8.632;2023-07-30T08:31:12;100115.31;;;27.65;47.74
19150;BME280;9707;49.158;8.632;2023-07-30T08:33:37;100117.00;;;27.66;48.17
19150;BME280;9707;49.158;8.632;2023-07-30T08:36:03;100114.97;;;27.68;47.34
19150;BME280;9707;49.158;8.632;2023-07-30T08:38:28;100118.53;;;27.69;47.12
19150;BME280;9707;49.158;8.632;2023-07-30T08:40:53;100124.72;;;27.71;47.53
19150;BME280;9707;49.158;8.632;2023-07-30T08:43:19;100118.88;;;27.74;46.67
19150;BME280;9707;49.158;8.632;2023-07-30T08:45:44;100112.56;;;27.73;46.88
19150;BME280;9707;49.158;8.632;2023-07-30T08:48:09;100124.34;;;27.74;46.04
19150;BME280;9707;49.158;8.632;2023-07-30T08:50:35;100122.31;;;27.76;45.67
19150;BME280;9707;49.158;8.632;2023-07-30T08:53:02;100117.00;;;27.74;45.62
19150;BME280;9707;49.158;8.632;2023-07-30T08:55:29;100124.84;;;27.77;45.24
19150;BME280;9707;49.158;8.632;2023-07-30T08:57:56;100135.66;;;27.79;45.16
19150;BME280;9707;49.158;8.632;2023-07-30T09:00:24;100136.31;;;27.81;44.55
19150;BME280;9707;49.158;8.632;2023-07-30T09:02:55;100138.06;;;27.82;43.93
19150;BME280;9707;49.158;8.632;2023-07-30T09:05:21;100139.75;;;27.83;44.25
19150;BME280;9707;49.158;8.632;2023-07-30T09:07:48;100136.84;;;27.84;44.10
19150;BME280;9707;49.158;8.632;2023-07-30T09:10:14;100150.34;;;27.86;43.52
19150;BME280;9707;49.158;8.632;2023-07-30T09:12:39;100136.66;;;27.86;43.44
19150;BME280;9707;49.158;8.632;2023-07-30T09:15:06;100138.19;;;27.88;43.52
19150;BME280;9707;49.158;8.632;2023-07-30T09:17:32;100147.28;;;27.89;43.52
19150;BME280;9707;49.158;8.632;2023-07-30T09:20:03;100146.06;;;27.91;43.29
19150;BME280;9707;49.158;8.632;2023-07-30T09:22:33;100153.06;;;27.94;43.20
19150;BME280;9707;49.158;8.632;2023-07-30T09:25:02;100149.47;;;27.93;43.17
19150;BME280;9707;49.158;8.632;2023-07-30T09:27:28;100141.94;;;27.95;43.22
19150;BME280;9707;49.158;8.632;2023-07-30T09:29:56;100155.47;;;27.97;42.97
19150;BME280;9707;49.158;8.632;2023-07-30T09:32:27;100147.91;;;27.99;42.35
19150;BME280;9707;49.158;8.632;2023-07-30T09:34:52;100155.09;;;28.00;42.46
19150;BME280;9707;49.158;8.632;2023-07-30T09:37:18;100148.59;;;28.01;42.67
19150;BME280;9707;49.158;8.632;2023-07-30T09:39:43;100162.28;;;28.01;42.46
19150;BME280;9707;49.158;8.632;2023-07-30T09:42:08;100161.06;;;28.03;42.62
19150;BME280;9707;49.158;8.632;2023-07-30T09:44:36;100162.13;;;28.02;42.09
19150;BME280;9707;49.158;8.632;2023-07-30T09:47:03;100160.25;;;28.03;41.89
19150;BME280;9707;49.158;8.632;2023-07-30T09:49:30;100159.19;;;28.04;41.81
19150;BME280;9707;49.158;8.632;2023-07-30T09:51:57;100160.91;;;28.05;42.15
19150;BME280;9707;49.158;8.632;2023-07-30T09:54:23;100168.09;;;28.06;42.30
19150;BME280;9707;49.158;8.632;2023-07-30T09:56:48;100172.56;;;28.07;42.10
19150;BME280;9707;49.158;8.632;2023-07-30T09:59:13;100166.03;;;28.08;41.52
19150;BME280;9707;49.158;8.632;2023-07-30T10:01:49;100162.59;;;28.06;40.82
19150;BME280;9707;49.158;8.632;2023-07-30T10:04:15;100175.28;;;28.07;41.23
19150;BME280;9707;49.158;8.632;2023-07-30T10:06:48;100180.78;;;28.07;40.78
19150;BME280;9707;49.158;8.632;2023-07-30T10:09:16;100173.56;;;28.06;41.32
19150;BME280;9707;49.158;8.632;2023-07-30T10:11:43;100174.44;;;28.06;41.35
19150;BME280;9707;49.158;8.632;2023-07-30T10:14:10;100182.47;;;28.08;41.30
19150;BME280;9707;49.158;8.632;2023-07-30T10:16:36;100193.44;;;28.08;40.60
19150;BME280;9707;49.158;8.632;2023-07-30T10:19:02;100187.97;;;28.08;40.18
19150;BME280;9707;49.158;8.632;2023-07-30T10:21:27;100188.63;;;28.10;40.54
19150;BME280;9707;49.158;8.632;2023-07-30T10:24:02;100185.88;;;28.10;40.12
19150;BME280;9707;49.158;8.632;2023-07-30T10:26:30;100183.84;;;28.12;40.69
19150;BME280;9707;49.158;8.632;2023-07-30T10:29:17;100202.16;;;28.11;40.58
19150;BME280;9707;49.158;8.632;2023-07-30T10:31:55;100201.28;;;28.11;39.24
19150;BME280;9707;49.158;8.632;2023-07-30T10:34:21;100205.75;;;28.12;39.44
19150;BME280;9707;49.158;8.632;2023-07-30T10:36:50;100196.50;;;28.13;40.05
19150;BME280;9707;49.158;8.632;2023-07-30T10:39:18;100196.31;;;28.14;40.10
19150;BME280;9707;49.158;8.632;2023-07-30T10:41:46;100202.63;;;28.15;39.73
19150;BME280;9707;49.158;8.632;2023-07-30T10:44:47;100209.00;;;28.15;40.23
19150;BME280;9707;49.158;8.632;2023-07-30T10:47:12;100214.28;;;28.17;40.43
19150;BME280;9707;49.158;8.632;2023-07-30T10:49:38;100217.88;;;28.17;39.83
19150;BME280;9707;49.158;8.632;2023-07-30T10:52:05;100225.91;;;28.19;39.82
19150;BME280;9707;49.158;8.632;2023-07-30T10:54:34;100215.63;;;28.21;39.48
19150;BME280;9707;49.158;8.632;2023-07-30T10:57:00;100206.41;;;28.22;39.33
19150;BME280;9707;49.158;8.632;2023-07-30T10:59:25;100205.38;;;28.23;39.80
19150;BME280;9707;49.158;8.632;2023-07-30T11:01:52;100213.41;;;28.24;39.55
19150;BME280;9707;49.158;8.632;2023-07-30T11:04:19;100214.94;;;28.27;39.81
19150;BME280;9707;49.158;8.632;2023-07-30T11:06:50;100218.34;;;28.29;39.21
19150;BME280;9707;49.158;8.632;2023-07-30T11:09:24;100229.31;;;28.29;39.18
19150;BME280;9707;49.158;8.632;2023-07-30T11:11:50;100227.63;;;28.28;39.10
19150;BME280;9707;49.158;8.632;2023-07-30T11:14:20;100227.44;;;28.29;39.29
19150;BME280;9707;49.158;8.632;2023-07-30T11:16:50;100231.00;;;28.30;38.90
19150;BME280;9707;49.158;8.632;2023-07-30T11:19:16;100233.75;;;28.30;38.78
19150;BME280;9707;49.158;8.632;2023-07-30T11:21:47;100243.69;;;28.31;38.57
19150;BME280;9707;49.158;8.632;2023-07-30T11:24:12;100235.66;;;28.29;37.56
19150;BME280;9707;49.158;8.632;2023-07-30T11:26:38;100240.09;;;28.30;37.28
19150;BME280;9707;49.158;8.632;2023-07-30T11:29:19;100238.19;;;28.31;37.08
19150;BME280;9707;49.158;8.632;2023-07-30T11:31:46;100247.47;;;28.30;36.81
19150;BME280;9707;49.158;8.632;2023-07-30T11:34:13;100252.09;;;28.29;36.61
19150;BME280;9707;49.158;8.632;2023-07-30T11:36:40;100251.22;;;28.29;36.37
19150;BME280;9707;49.158;8.632;2023-07-30T11:39:06;100253.97;;;28.29;35.60
19150;BME280;9707;49.158;8.632;2023-07-30T11:41:32;100250.56;;;28.27;35.81
19150;BME280;9707;49.158;8.632;2023-07-30T11:43:58;100257.03;;;28.26;35.55
19150;BME280;9707;49.158;8.632;2023-07-30T11:46:24;100252.59;;;28.25;35.30
19150;BME280;9707;49.158;8.632;2023-07-30T11:48:53;100260.00;;;28.24;35.06
19150;BME280;9707;49.158;8.632;2023-07-30T11:51:35;100257.41;;;28.23;34.98
19150;BME280;9707;49.158;8.632;2023-07-30T11:54:01;100273.47;;;28.26;34.64
19150;BME280;9707;49.158;8.632;2023-07-30T11:56:28;100262.53;;;28.26;34.15
19150;BME280;9707;49.158;8.632;2023-07-30T11:58:56;100268.00;;;28.26;34.43
19150;BME280;9707;49.158;8.632;2023-07-30T12:01:23;100264.59;;;28.24;34.69
19150;BME280;9707;49.158;8.632;2023-07-30T12:03:49;100269.91;;;28.25;34.88
19150;BME280;9707;49.158;8.632;2023-07-30T12:06:14;100253.31;;;28.27;35.46
19150;BME280;9707;49.158;8.632;2023-07-30T12:08:40;100265.97;;;28.28;34.39
19150;BME280;9707;49.158;8.632;2023-07-30T12:11:08;100265.81;;;28.29;34.95
19150;BME280;9707;49.158;8.632;2023-07-30T12:13:33;100275.72;;;28.30;35.24
19150;BME280;9707;49.158;8.632;2023-07-30T12:15:59;100279.28;;;28.31;34.93
19150;BME280;9707;49.158;8.632;2023-07-30T12:18:25;100280.00;;;28.33;34.66
19150;BME280;9707;49.158;8.632;2023-07-30T12:20:52;100286.31;;;28.33;34.82
19150;BME280;9707;49.158;8.632;2023-07-30T12:23:19;100281.69;;;28.34;34.32
19150;BME280;9707;49.158;8.632;2023-07-30T12:25:44;100287.19;;;28.34;34.62
19150;BME280;9707;49.158;8.632;2023-07-30T12:28:10;100283.56;;;28.33;34.25
19150;BME280;9707;49.158;8.632;2023-07-30T12:30:35;100287.19;;;28.34;34.17
19150;BME280;9707;49.158;8.632;2023-07-30T12:33:02;100293.53;;;28.34;33.57
19150;BME280;9707;49.158;8.632;2023-07-30T12:35:27;100288.88;;;28.35;34.14
19150;BME280;9707;49.158;8.632;2023-07-30T12:37:53;100290.59;;;28.36;34.51
19150;BME280;9707;49.158;8.632;2023-07-30T12:40:18;100283.41;;;28.35;34.59
19150;BME280;9707;49.158;8.632;2023-07-30T12:42:44;100281.34;;;28.37;34.16
19150;BME280;9707;49.158;8.632;2023-07-30T12:45:09;100280.31;;;28.38;33.68
19150;BME280;9707;49.158;8.632;2023-07-30T12:47:34;100281.03;;;28.40;33.04
19150;BME280;9707;49.158;8.632;2023-07-30T12:50:03;100291.97;;;28.40;33.59
19150;BME280;9707;49.158;8.632;2023-07-30T12:52:29;100291.97;;;28.40;33.73
19150;BME280;9707;49.158;8.632;2023-07-30T12:54:54;100295.75;;;28.39;34.02
19150;BME280;9707;49.158;8.632;2023-07-30T12:57:20;100286.50;;;28.40;33.56
19150;BME280;9707;49.158;8.632;2023-07-30T12:59:45;100293.03;;;28.39;33.35